sensor_id;sensor_type;location;lat;lon;timestamp;pressure;altitude;pressure_sealevel;temperature;humidity
13695;BME280;6919;52.344;14.518;2023-05-28T00:02:35;101388.28;;;10.09;100.00
13695;BME280;6919;52.344;14.518;2023-05-28T00:05:06;101389.47;;;10.16;100.00
13695;BME280;6919;52.344;14.518;2023-05-28T00:07:35;101383.53;;;10.13;100.00
13695;BME280;6919;52.344;14.518;2023-05-28T00:10:04;101378.44;;;10.10;100.00
13695;BME280;6919;52.344;14.518;2023-05-28T00:12:32;101379.47;;;9.98;100.00
13695;BME280;6919;52.344;14.518;2023-05-28T00:15:01;101372.09;;;9.90;100.00
13695;BME280;6919;52.344;14.518;2023-05-28T00:17:29;101374.03;;;9.88;100.00
13695;BME280;6919;52.344;14.518;2023-05-28T00:19:58;101367.50;;;9.81;100.00
13695;BME280;6919;52.344;14.518;2023-05-28T00:22:28;101363.38;;;9.77;100.00
13695;BME280;6919;52.344;14.518;2023-05-28T00:24:56;101371.63;;;9.85;100.00
13695;BME280;6919;52.344;14.518;2023-05-28T00:27:26;101360.91;;;9.85;100.00
13695;BME280;6919;52.344;14.518;2023-05-28T00:29:55;101360.97;;;9.74;100.00
13695;BME280;6919;52.344;14.518;2023-05-28T00:32:23;101355.47;;;9.76;100.00
13695;BME280;6919;52.344;14.518;2023-05-28T00:34:52;101360.91;;;9.85;100.00
13695;BME280;6919;52.344;14.518;2023-05-28T00:37:20;101355.34;;;9.77;100.00
13695;BME280;6919;52.344;14.518;2023-05-28T00:39:50;101367.78;;;9.78;100.00
13695;BME280;6919;52.344;14.518;2023-05-28T00:42:18;101360.31;;;9.82;100.00
13695;BME280;6919;52.344;14.518;2023-05-28T00:44:46;101359.19;;;9.84;100.00
13695;BME280;6919;52.344;14.518;2023-05-28T00:47:15;101354.50;;;9.97;100.00
13695;BME280;6919;52.344;14.518;2023-05-28T00:49:43;101355.34;;;10.18;100.00
13695;BME280;6919;52.344;14.518;2023-05-28T00:52:12;101345.69;;;10.36;100.00
13695;BME280;6919;52.344;14.518;2023-05-28T00:54:41;101349.72;;;10.51;100.00
13695;BME280;6919;52.344;14.518;2023-05-28T00:57:11;101347.13;;;10.40;100.00
13695;BME280;6919;52.344;14.518;2023-05-28T00:59:39;101356.25;;;10.28;100.00
13695;BME280;6919;52.344;14.518;2023-05-28T01:02:09;101346.22;;;10.30;100.00
13695;BME280;6919;52.344;14.518;2023-05-28T01:04:37;101354.13;;;10.32;100.00
13695;BME280;6919;52.344;14.518;2023-05-28T01:07:06;101348.88;;;10.21;100.00
13695;BME280;6919;52.344;14.518;2023-05-28T01:09:34;101350.91;;;10.08;100.00
13695;BME280;6919;52.344;14.518;2023-05-28T01:12:05;101354.06;;;9.92;100.00
13695;BME280;6919;52.344;14.518;2023-05-28T01:14:36;101342.00;;;9.87;100.00
13695;BME280;6919;52.344;14.518;2023-05-28T01:17:05;101347.44;;;9.96;100.00
13695;BME280;6919;52.344;14.518;2023-05-28T01:19:34;101340.50;;;9.94;100.00
13695;BME280;6919;52.344;14.518;2023-05-28T01:22:05;101339.13;;;9.99;100.00
13695;BME280;6919;52.344;14.518;2023-05-28T01:24:35;101338.72;;;10.04;100.00
13695;BME280;6919;52.344;14.518;2023-05-28T01:27:05;101336.44;;;10.10;100.00
13695;BME280;6919;52.344;14.518;2023-05-28T01:29:34;101344.03;;;9.94;100.00
13695;BME280;6919;52.344;14.518;2023-05-28T01:32:03;101345.94;;;9.83;100.00
13695;BME280;6919;52.344;14.518;2023-05-28T01:34:32;101347.91;;;9.81;100.00
13695;BME280;6919;52.344;14.518;2023-05-28T01:37:04;101348.47;;;9.84;100.00
13695;BME280;6919;52.344;14.518;2023-05-28T01:39:43;101340.53;;;9.73;100.00
13695;BME280;6919;52.344;14.518;2023-05-28T01:42:13;101336.47;;;9.58;100.00
13695;BME280;6919;52.344;14.518;2023-05-28T01:44:43;101336.28;;;9.50;100.00
13695;BME280;6919;52.344;14.518;2023-05-28T01:47:13;101327.91;;;9.44;100.00
13695;BME280;6919;52.344;14.518;2023-05-28T01:49:42;101329.63;;;9.45;100.00
13695;BME280;6919;52.344;14.518;2023-05-28T01:52:13;101332.47;;;9.32;100.00
13695;BME280;6919;52.344;14.518;2023-05-28T01:54:43;101334.47;;;9.19;100.00
13695;BME280;6919;52.344;14.518;2023-05-28T01:57:11;101329.38;;;9.16;100.00
13695;BME280;6919;52.344;14.518;2023-05-28T01:59:40;101325.97;;;9.14;100.00
13695;BME280;6919;52.344;14.518;2023-05-28T02:02:08;101324.53;;;9.10;100.00
13695;BME280;6919;52.344;14.518;2023-05-28T02:04:36;101325.88;;;9.04;100.00
13695;BME280;6919;52.344;14.518;2023-05-28T02:07:04;101334.28;;;9.00;100.00
13695;BME280;6919;52.344;14.518;2023-05-28T02:09:33;101330.53;;;9.02;100.00
13695;BME280;6919;52.344;14.518;2023-05-28T02:12:03;101328.59;;;8.93;100.00
13695;BME280;6919;52.344;14.518;2023-05-28T02:14:31;101328.00;;;8.90;100.00
13695;BME280;6919;52.344;14.518;2023-05-28T02:17:00;101318.31;;;8.78;100.00
13695;BME280;6919;52.344;14.518;2023-05-28T02:19:28;101318.81;;;8.72;100.00
13695;BME280;6919;52.344;14.518;2023-05-28T02:21:56;101321.50;;;8.61;100.00
13695;BME280;6919;52.344;14.518;2023-05-28T02:24:25;101330.28;;;8.52;100.00
13695;BME280;6919;52.344;14.518;2023-05-28T02:26:54;101328.47;;;8.52;100.00
13695;BME280;6919;52.344;14.518;2023-05-28T02:29:24;101328.44;;;8.41;100.00
13695;BME280;6919;52.344;14.518;2023-05-28T02:31:52;101327.97;;;8.36;100.00
13695;BME280;6919;52.344;14.518;2023-05-28T02:34:21;101330.28;;;8.30;100.00
13695;BME280;6919;52.344;14.518;2023-05-28T02:36:49;101327.13;;;8.25;100.00
13695;BME280;6919;52.344;14.518;2023-05-28T02:39:19;101330.53;;;8.27;100.00
13695;BME280;6919;52.344;14.518;2023-05-28T02:41:48;101327.13;;;8.25;100.00
13695;BME280;6919;52.344;14.518;2023-05-28T02:44:16;101334.53;;;8.21;100.00
13695;BME280;6919;52.344;14.518;2023-05-28T02:46:46;101328.53;;;8.18;100.00
13695;BME280;6919;52.344;14.518;2023-05-28T02:49:14;101334.75;;;8.18;100.00
13695;BME280;6919;52.344;14.518;2023-05-28T02:51:42;101330.13;;;8.09;100.00
13695;BME280;6919;52.344;14.518;2023-05-28T02:54:11;101325.00;;;8.06;100.00
13695;BME280;6919;52.344;14.518;2023-05-28T02:56:39;101327.09;;;8.03;100.00
13695;BME280;6919;52.344;14.518;2023-05-28T02:59:07;101324.06;;;7.96;100.00
13695;BME280;6919;52.344;14.518;2023-05-28T03:01:36;101332.06;;;7.96;100.00
13695;BME280;6919;52.344;14.518;2023-05-28T03:04:05;101324.28;;;7.93;100.00
13695;BME280;6919;52.344;14.518;2023-05-28T03:06:34;101326.97;;;7.93;100.00
13695;BME280;6919;52.344;14.518;2023-05-28T03:09:03;101320.06;;;7.91;100.00
13695;BME280;6919;52.344;14.518;2023-05-28T03:11:31;101322.84;;;7.89;100.00
13695;BME280;6919;52.344;14.518;2023-05-28T03:14:00;101320.75;;;7.93;100.00
13695;BME280;6919;52.344;14.518;2023-05-28T03:16:28;101332.19;;;7.95;100.00
13695;BME280;6919;52.344;14.518;2023-05-28T03:19:00;101330.00;;;8.00;100.00
13695;BME280;6919;52.344;14.518;2023-05-28T03:21:29;101334.47;;;7.99;100.00
13695;BME280;6919;52.344;14.518;2023-05-28T03:23:58;101333.88;;;8.07;100.00
13695;BME280;6919;52.344;14.518;2023-05-28T03:26:27;101335.47;;;8.09;100.00
13695;BME280;6919;52.344;14.518;2023-05-28T03:28:55;101335.72;;;8.17;100.00
13695;BME280;6919;52.344;14.518;2023-05-28T03:31:28;101338.03;;;8.22;100.00
13695;BME280;6919;52.344;14.518;2023-05-28T03:33:57;101339.03;;;8.32;100.00
13695;BME280;6919;52.344;14.518;2023-05-28T03:36:25;101340.22;;;8.39;100.00
13695;BME280;6919;52.344;14.518;2023-05-28T03:38:55;101340.22;;;8.50;100.00
13695;BME280;6919;52.344;14.518;2023-05-28T03:41:24;101343.28;;;8.56;100.00
13695;BME280;6919;52.344;14.518;2023-05-28T03:43:53;101340.09;;;8.62;100.00
13695;BME280;6919;52.344;14.518;2023-05-28T03:46:21;101334.13;;;8.70;100.00
13695;BME280;6919;52.344;14.518;2023-05-28T03:48:50;101333.16;;;8.71;100.00
13695;BME280;6919;52.344;14.518;2023-05-28T03:51:19;101326.09;;;8.70;100.00
13695;BME280;6919;52.344;14.518;2023-05-28T03:53:48;101329.38;;;8.84;100.00
13695;BME280;6919;52.344;14.518;2023-05-28T03:56:18;101337.22;;;8.97;100.00
13695;BME280;6919;52.344;14.518;2023-05-28T03:58:47;101327.31;;;9.08;100.00
13695;BME280;6919;52.344;14.518;2023-05-28T04:01:15;101325.13;;;9.14;100.00
13695;BME280;6919;52.344;14.518;2023-05-28T04:03:43;101314.19;;;9.37;100.00
13695;BME280;6919;52.344;14.518;2023-05-28T04:06:12;101326.22;;;9.43;100.00
13695;BME280;6919;52.344;14.518;2023-05-28T04:08:41;101326.34;;;9.41;100.00
13695;BME280;6919;52.344;14.518;2023-05-28T04:11:09;101319.28;;;9.61;100.00
13695;BME280;6919;52.344;14.518;2023-05-28T04:13:39;101321.78;;;9.73;100.00
13695;BME280;6919;52.344;14.518;2023-05-28T04:16:08;101319.81;;;9.96;100.00
13695;BME280;6919;52.344;14.518;2023-05-28T04:18:36;101323.28;;;10.07;100.00
13695;BME280;6919;52.344;14.518;2023-05-28T04:21:05;101322.81;;;10.23;100.00
13695;BME280;6919;52.344;14.518;2023-05-28T04:23:34;101322.31;;;10.38;100.00
13695;BME280;6919;52.344;14.518;2023-05-28T04:26:02;101320.81;;;10.55;100.00
13695;BME280;6919;52.344;14.518;2023-05-28T04:28:33;101317.34;;;10.83;100.00
13695;BME280;6919;52.344;14.518;2023-05-28T04:31:03;101320.72;;;10.85;100.00
13695;BME280;6919;52.344;14.518;2023-05-28T04:33:32;101321.59;;;11.04;100.00
13695;BME280;6919;52.344;14.518;2023-05-28T04:36:00;101324.59;;;11.20;100.00
13695;BME280;6919;52.344;14.518;2023-05-28T04:38:30;101322.75;;;11.40;100.00
13695;BME280;6919;52.344;14.518;2023-05-28T04:41:00;101321.59;;;11.52;100.00
13695;BME280;6919;52.344;14.518;2023-05-28T04:43:30;101315.09;;;11.83;100.00
13695;BME280;6919;52.344;14.518;2023-05-28T04:46:00;101317.56;;;12.04;100.00
13695;BME280;6919;52.344;14.518;2023-05-28T04:48:31;101311.53;;;12.29;100.00
13695;BME280;6919;52.344;14.518;2023-05-28T04:51:02;101312.09;;;12.59;100.00
13695;BME280;6919;52.344;14.518;2023-05-28T04:53:32;101300.53;;;12.76;100.00
13695;BME280;6919;52.344;14.518;2023-05-28T04:56:01;101304.75;;;13.06;100.00
13695;BME280;6919;52.344;14.518;2023-05-28T04:58:30;101307.00;;;13.45;100.00
13695;BME280;6919;52.344;14.518;2023-05-28T05:00:58;101319.34;;;13.56;100.00
13695;BME280;6919;52.344;14.518;2023-05-28T05:03:29;101308.97;;;13.86;100.00
13695;BME280;6919;52.344;14.518;2023-05-28T05:06:00;101320.19;;;14.50;100.00
13695;BME280;6919;52.344;14.518;2023-05-28T05:08:30;101315.09;;;14.47;100.00
13695;BME280;6919;52.344;14.518;2023-05-28T05:11:00;101311.41;;;14.56;100.00
13695;BME280;6919;52.344;14.518;2023-05-28T05:13:28;101317.72;;;14.73;100.00
13695;BME280;6919;52.344;14.518;2023-05-28T05:15:57;101311.75;;;15.03;100.00
13695;BME280;6919;52.344;14.518;2023-05-28T05:18:25;101310.72;;;14.96;100.00
13695;BME280;6919;52.344;14.518;2023-05-28T05:20:53;101308.47;;;15.41;100.00
13695;BME280;6919;52.344;14.518;2023-05-28T05:23:24;101313.19;;;15.87;100.00
13695;BME280;6919;52.344;14.518;2023-05-28T05:25:52;101305.81;;;16.28;100.00
13695;BME280;6919;52.344;14.518;2023-05-28T05:28:21;101317.59;;;16.51;100.00
13695;BME280;6919;52.344;14.518;2023-05-28T05:30:49;101317.72;;;16.96;98.57
13695;BME280;6919;52.344;14.518;2023-05-28T05:33:18;101316.19;;;17.24;89.70
13695;BME280;6919;52.344;14.518;2023-05-28T05:35:46;101322.78;;;16.99;84.32
13695;BME280;6919;52.344;14.518;2023-05-28T05:38:14;101323.13;;;17.26;82.40
13695;BME280;6919;52.344;14.518;2023-05-28T05:40:44;101320.63;;;16.94;76.80
13695;BME280;6919;52.344;14.518;2023-05-28T05:43:12;101319.19;;;17.29;83.81
13695;BME280;6919;52.344;14.518;2023-05-28T05:45:41;101316.03;;;17.25;85.16
13695;BME280;6919;52.344;14.518;2023-05-28T05:48:09;101317.88;;;17.93;69.84
13695;BME280;6919;52.344;14.518;2023-05-28T05:50:48;101317.00;;;17.92;67.13
13695;BME280;6919;52.344;14.518;2023-05-28T05:53:17;101313.72;;;17.82;71.88
13695;BME280;6919;52.344;14.518;2023-05-28T05:55:47;101315.13;;;17.56;68.91
13695;BME280;6919;52.344;14.518;2023-05-28T05:58:16;101312.78;;;17.52;73.59
13695;BME280;6919;52.344;14.518;2023-05-28T06:00:44;101321.13;;;17.88;72.47
13695;BME280;6919;52.344;14.518;2023-05-28T06:03:14;101320.63;;;18.22;71.80
13695;BME280;6919;52.344;14.518;2023-05-28T06:05:42;101324.00;;;18.24;67.57
13695;BME280;6919;52.344;14.518;2023-05-28T06:08:11;101311.94;;;18.41;65.37
13695;BME280;6919;52.344;14.518;2023-05-28T06:10:39;101317.38;;;18.41;66.93
13695;BME280;6919;52.344;14.518;2023-05-28T06:13:09;101316.81;;;18.60;64.98
13695;BME280;6919;52.344;14.518;2023-05-28T06:15:38;101307.75;;;18.88;57.54
13695;BME280;6919;52.344;14.518;2023-05-28T06:18:09;101305.84;;;18.82;60.51
13695;BME280;6919;52.344;14.518;2023-05-28T06:20:38;101309.19;;;18.84;57.83
13695;BME280;6919;52.344;14.518;2023-05-28T06:23:07;101309.81;;;19.22;56.38
13695;BME280;6919;52.344;14.518;2023-05-28T06:25:36;101310.78;;;19.29;58.95
13695;BME280;6919;52.344;14.518;2023-05-28T06:28:04;101307.66;;;19.32;58.42
13695;BME280;6919;52.344;14.518;2023-05-28T06:30:34;101315.44;;;19.56;54.01
13695;BME280;6919;52.344;14.518;2023-05-28T06:33:02;101314.59;;;19.55;55.08
13695;BME280;6919;52.344;14.518;2023-05-28T06:35:31;101318.50;;;19.67;54.96
13695;BME280;6919;52.344;14.518;2023-05-28T06:37:59;101311.81;;;19.70;54.63
13695;BME280;6919;52.344;14.518;2023-05-28T06:40:28;101316.91;;;19.79;53.19
13695;BME280;6919;52.344;14.518;2023-05-28T06:42:56;101318.16;;;20.32;50.31
13695;BME280;6919;52.344;14.518;2023-05-28T06:45:28;101314.63;;;19.20;54.62
13695;BME280;6919;52.344;14.518;2023-05-28T06:48:00;101325.66;;;19.33;51.36
13695;BME280;6919;52.344;14.518;2023-05-28T06:50:29;101322.66;;;19.63;52.69
13695;BME280;6919;52.344;14.518;2023-05-28T06:52:58;101326.88;;;20.14;50.99
13695;BME280;6919;52.344;14.518;2023-05-28T06:55:27;101330.34;;;20.70;45.72
13695;BME280;6919;52.344;14.518;2023-05-28T06:57:56;101323.72;;;20.11;48.90
13695;BME280;6919;52.344;14.518;2023-05-28T07:00:24;101322.97;;;20.02;50.13
13695;BME280;6919;52.344;14.518;2023-05-28T07:02:53;101326.75;;;20.29;47.84
13695;BME280;6919;52.344;14.518;2023-05-28T07:05:23;101327.28;;;20.46;48.35
13695;BME280;6919;52.344;14.518;2023-05-28T07:07:52;101329.56;;;20.83;45.74
13695;BME280;6919;52.344;14.518;2023-05-28T07:10:22;101329.09;;;20.73;45.64
13695;BME280;6919;52.344;14.518;2023-05-28T07:12:51;101330.59;;;20.75;48.60
13695;BME280;6919;52.344;14.518;2023-05-28T07:15:19;101330.63;;;21.48;45.62
13695;BME280;6919;52.344;14.518;2023-05-28T07:17:49;101333.75;;;21.32;44.36
13695;BME280;6919;52.344;14.518;2023-05-28T07:20:17;101327.59;;;21.11;46.10
13695;BME280;6919;52.344;14.518;2023-05-28T07:22:47;101324.41;;;20.94;46.69
13695;BME280;6919;52.344;14.518;2023-05-28T07:25:16;101319.81;;;21.01;45.21
13695;BME280;6919;52.344;14.518;2023-05-28T07:27:45;101329.56;;;21.43;42.36
13695;BME280;6919;52.344;14.518;2023-05-28T07:30:14;101320.13;;;20.85;46.26
13695;BME280;6919;52.344;14.518;2023-05-28T07:32:42;101317.31;;;20.66;43.91
13695;BME280;6919;52.344;14.518;2023-05-28T07:35:10;101315.91;;;20.76;43.18
13695;BME280;6919;52.344;14.518;2023-05-28T07:37:39;101309.97;;;21.00;42.28
13695;BME280;6919;52.344;14.518;2023-05-28T07:40:09;101313.66;;;21.66;39.05
13695;BME280;6919;52.344;14.518;2023-05-28T07:42:38;101309.38;;;21.18;40.59
13695;BME280;6919;52.344;14.518;2023-05-28T07:45:07;101309.00;;;21.47;43.05
13695;BME280;6919;52.344;14.518;2023-05-28T07:47:35;101317.69;;;22.02;39.45
13695;BME280;6919;52.344;14.518;2023-05-28T07:50:06;101309.06;;;22.12;38.37
13695;BME280;6919;52.344;14.518;2023-05-28T07:52:34;101312.22;;;21.76;37.07
13695;BME280;6919;52.344;14.518;2023-05-28T07:55:03;101312.97;;;21.25;38.31
13695;BME280;6919;52.344;14.518;2023-05-28T07:57:33;101306.94;;;21.42;35.78
13695;BME280;6919;52.344;14.518;2023-05-28T08:00:02;101321.19;;;21.44;36.97
13695;BME280;6919;52.344;14.518;2023-05-28T08:02:33;101312.75;;;21.26;36.27
13695;BME280;6919;52.344;14.518;2023-05-28T08:05:02;101308.06;;;21.01;38.33
13695;BME280;6919;52.344;14.518;2023-05-28T08:07:31;101311.56;;;21.61;37.24
13695;BME280;6919;52.344;14.518;2023-05-28T08:10:00;101310.75;;;22.00;37.69
13695;BME280;6919;52.344;14.518;2023-05-28T08:12:28;101308.25;;;22.05;37.27
13695;BME280;6919;52.344;14.518;2023-05-28T08:14:58;101312.22;;;21.96;38.24
13695;BME280;6919;52.344;14.518;2023-05-28T08:17:30;101308.38;;;22.42;36.29
13695;BME280;6919;52.344;14.518;2023-05-28T08:20:01;101311.09;;;22.42;37.01
13695;BME280;6919;52.344;14.518;2023-05-28T08:22:30;101309.81;;;22.71;36.80
13695;BME280;6919;52.344;14.518;2023-05-28T08:24:59;101310.66;;;22.58;37.97
13695;BME280;6919;52.344;14.518;2023-05-28T08:27:28;101307.59;;;21.83;38.20
13695;BME280;6919;52.344;14.518;2023-05-28T08:29:57;101306.19;;;22.77;36.84
13695;BME280;6919;52.344;14.518;2023-05-28T08:32:26;101301.44;;;22.33;38.47
13695;BME280;6919;52.344;14.518;2023-05-28T08:34:54;101310.53;;;22.01;37.93
13695;BME280;6919;52.344;14.518;2023-05-28T08:37:22;101307.81;;;21.75;37.04
13695;BME280;6919;52.344;14.518;2023-05-28T08:39:51;101298.00;;;21.01;36.64
13695;BME280;6919;52.344;14.518;2023-05-28T08:42:19;101299.56;;;20.83;37.85
13695;BME280;6919;52.344;14.518;2023-05-28T08:44:48;101296.75;;;21.04;38.51
13695;BME280;6919;52.344;14.518;2023-05-28T08:47:18;101297.00;;;21.15;41.00
13695;BME280;6919;52.344;14.518;2023-05-28T08:49:51;101287.16;;;21.21;39.23
13695;BME280;6919;52.344;14.518;2023-05-28T08:52:20;101293.31;;;21.75;39.27
13695;BME280;6919;52.344;14.518;2023-05-28T08:54:51;101281.78;;;21.92;39.22
13695;BME280;6919;52.344;14.518;2023-05-28T08:57:21;101276.69;;;22.15;36.49
13695;BME280;6919;52.344;14.518;2023-05-28T08:59:49;101281.56;;;21.74;39.13
13695;BME280;6919;52.344;14.518;2023-05-28T09:02:23;101278.97;;;22.25;37.13
13695;BME280;6919;52.344;14.518;2023-05-28T09:04:52;101269.41;;;22.73;37.59
13695;BME280;6919;52.344;14.518;2023-05-28T09:07:23;101274.41;;;23.20;38.02
13695;BME280;6919;52.344;14.518;2023-05-28T09:09:54;101268.75;;;23.15;37.30
13695;BME280;6919;52.344;14.518;2023-05-28T09:12:24;101266.06;;;23.09;36.75
13695;BME280;6919;52.344;14.518;2023-05-28T09:14:53;101262.81;;;23.25;38.65
13695;BME280;6919;52.344;14.518;2023-05-28T09:17:34;101259.38;;;23.36;35.64
13695;BME280;6919;52.344;14.518;2023-05-28T09:20:09;101262.84;;;23.18;36.52
13695;BME280;6919;52.344;14.518;2023-05-28T09:22:39;101257.72;;;23.35;37.31
13695;BME280;6919;52.344;14.518;2023-05-28T09:25:09;101260.56;;;23.15;36.84
13695;BME280;6919;52.344;14.518;2023-05-28T09:27:38;101256.03;;;23.34;35.82
13695;BME280;6919;52.344;14.518;2023-05-28T09:30:08;101256.84;;;22.97;33.78
13695;BME280;6919;52.344;14.518;2023-05-28T09:32:38;101254.44;;;22.12;35.91
13695;BME280;6919;52.344;14.518;2023-05-28T09:35:07;101241.88;;;22.68;37.87
13695;BME280;6919;52.344;14.518;2023-05-28T09:37:35;101243.59;;;23.00;36.51
13695;BME280;6919;52.344;14.518;2023-05-28T09:40:07;101234.59;;;23.31;36.20
13695;BME280;6919;52.344;14.518;2023-05-28T09:42:37;101236.31;;;22.81;35.16
13695;BME280;6919;52.344;14.518;2023-05-28T09:45:10;101239.00;;;22.94;37.31
13695;BME280;6919;52.344;14.518;2023-05-28T09:47:45;101231.28;;;23.22;39.32
13695;BME280;6919;52.344;14.518;2023-05-28T09:50:13;101239.63;;;23.83;37.20
13695;BME280;6919;52.344;14.518;2023-05-28T09:52:44;101242.56;;;23.32;35.78
13695;BME280;6919;52.344;14.518;2023-05-28T09:55:15;101239.94;;;21.98;35.78
13695;BME280;6919;52.344;14.518;2023-05-28T09:57:58;101233.25;;;21.42;37.25
13695;BME280;6919;52.344;14.518;2023-05-28T10:00:31;101236.81;;;21.49;39.39
13695;BME280;6919;52.344;14.518;2023-05-28T10:03:13;101222.94;;;22.09;39.61
13695;BME280;6919;52.344;14.518;2023-05-28T10:05:51;101225.59;;;22.79;37.98
13695;BME280;6919;52.344;14.518;2023-05-28T10:08:23;101227.00;;;22.95;38.62
13695;BME280;6919;52.344;14.518;2023-05-28T10:10:54;101227.50;;;23.48;37.01
13695;BME280;6919;52.344;14.518;2023-05-28T10:13:23;101223.00;;;23.78;37.05
13695;BME280;6919;52.344;14.518;2023-05-28T10:15:53;101222.03;;;23.48;36.03
13695;BME280;6919;52.344;14.518;2023-05-28T10:18:25;101218.03;;;23.93;35.50
13695;BME280;6919;52.344;14.518;2023-05-28T10:20:54;101218.53;;;24.26;35.45
13695;BME280;6919;52.344;14.518;2023-05-28T10:23:25;101224.78;;;23.90;34.58
13695;BME280;6919;52.344;14.518;2023-05-28T10:25:55;101226.69;;;24.14;34.35
13695;BME280;6919;52.344;14.518;2023-05-28T10:28:23;101220.59;;;24.30;34.63
13695;BME280;6919;52.344;14.518;2023-05-28T10:31:03;101236.88;;;24.25;32.83
13695;BME280;6919;52.344;14.518;2023-05-28T10:33:38;101235.25;;;24.00;33.62
13695;BME280;6919;52.344;14.518;2023-05-28T10:36:10;101224.09;;;23.77;34.15
13695;BME280;6919;52.344;14.518;2023-05-28T10:38:43;101210.38;;;23.52;35.90
13695;BME280;6919;52.344;14.518;2023-05-28T10:41:18;101212.13;;;23.96;36.27
13695;BME280;6919;52.344;14.518;2023-05-28T10:43:49;101221.97;;;24.21;33.34
13695;BME280;6919;52.344;14.518;2023-05-28T10:46:19;101223.25;;;23.52;33.31
13695;BME280;6919;52.344;14.518;2023-05-28T10:49:11;101218.84;;;22.88;34.48
13695;BME280;6919;52.344;14.518;2023-05-28T10:51:55;101213.16;;;22.90;36.96
13695;BME280;6919;52.344;14.518;2023-05-28T10:54:39;101214.19;;;24.00;35.43
13695;BME280;6919;52.344;14.518;2023-05-28T10:57:12;101214.50;;;24.46;34.05
13695;BME280;6919;52.344;14.518;2023-05-28T10:59:47;101219.88;;;24.53;33.42
13695;BME280;6919;52.344;14.518;2023-05-28T11:02:24;101214.34;;;23.81;33.07
13695;BME280;6919;52.344;14.518;2023-05-28T11:04:56;101205.69;;;23.84;33.76
13695;BME280;6919;52.344;14.518;2023-05-28T11:07:31;101200.94;;;23.48;35.11
13695;BME280;6919;52.344;14.518;2023-05-28T11:10:01;101209.34;;;24.20;34.55
13695;BME280;6919;52.344;14.518;2023-05-28T11:12:31;101203.47;;;24.17;33.38
13695;BME280;6919;52.344;14.518;2023-05-28T11:15:00;101203.75;;;24.63;33.87
13695;BME280;6919;52.344;14.518;2023-05-28T11:17:28;101205.03;;;24.78;34.08
13695;BME280;6919;52.344;14.518;2023-05-28T11:19:58;101202.84;;;24.33;31.67
13695;BME280;6919;52.344;14.518;2023-05-28T11:22:33;101204.28;;;24.53;31.96
13695;BME280;6919;52.344;14.518;2023-05-28T11:25:07;101203.63;;;24.40;32.42
13695;BME280;6919;52.344;14.518;2023-05-28T11:27:37;101199.94;;;24.46;30.73
13695;BME280;6919;52.344;14.518;2023-05-28T11:30:10;101208.50;;;24.85;31.49
13695;BME280;6919;52.344;14.518;2023-05-28T11:32:40;101196.94;;;24.18;30.50
13695;BME280;6919;52.344;14.518;2023-05-28T11:35:12;101185.16;;;23.93;32.36
13695;BME280;6919;52.344;14.518;2023-05-28T11:37:43;101190.69;;;24.11;30.90
13695;BME280;6919;52.344;14.518;2023-05-28T11:40:14;101188.53;;;24.31;31.71
13695;BME280;6919;52.344;14.518;2023-05-28T11:42:58;101183.94;;;24.61;32.60
13695;BME280;6919;52.344;14.518;2023-05-28T11:45:27;101179.19;;;24.86;31.12
13695;BME280;6919;52.344;14.518;2023-05-28T11:47:55;101187.19;;;24.99;31.48
13695;BME280;6919;52.344;14.518;2023-05-28T11:50:25;101195.03;;;24.84;31.00
13695;BME280;6919;52.344;14.518;2023-05-28T11:52:55;101182.72;;;24.57;30.90
13695;BME280;6919;52.344;14.518;2023-05-28T11:55:24;101179.41;;;24.19;31.32
13695;BME280;6919;52.344;14.518;2023-05-28T11:57:55;101183.25;;;24.65;30.41
13695;BME280;6919;52.344;14.518;2023-05-28T12:00:31;101178.31;;;25.15;31.78
13695;BME280;6919;52.344;14.518;2023-05-28T12:03:00;101174.44;;;24.93;31.49
13695;BME280;6919;52.344;14.518;2023-05-28T12:05:36;101175.78;;;24.72;32.51
13695;BME280;6919;52.344;14.518;2023-05-28T12:08:06;101175.31;;;24.57;31.93
13695;BME280;6919;52.344;14.518;2023-05-28T12:10:35;101171.00;;;24.97;30.29
13695;BME280;6919;52.344;14.518;2023-05-28T12:13:05;101177.34;;;24.80;31.22
13695;BME280;6919;52.344;14.518;2023-05-28T12:15:33;101172.22;;;24.72;31.02
13695;BME280;6919;52.344;14.518;2023-05-28T12:18:02;101166.22;;;24.63;31.20
13695;BME280;6919;52.344;14.518;2023-05-28T12:20:40;101168.94;;;24.93;30.25
13695;BME280;6919;52.344;14.518;2023-05-28T12:23:10;101163.50;;;25.16;30.68
13695;BME280;6919;52.344;14.518;2023-05-28T12:25:46;101162.28;;;25.53;29.53
13695;BME280;6919;52.344;14.518;2023-05-28T12:28:17;101165.34;;;25.45;29.60
13695;BME280;6919;52.344;14.518;2023-05-28T12:30:49;101161.00;;;25.26;27.66
13695;BME280;6919;52.344;14.518;2023-05-28T12:33:18;101153.69;;;25.61;30.24
13695;BME280;6919;52.344;14.518;2023-05-28T12:35:48;101155.09;;;25.98;29.50
13695;BME280;6919;52.344;14.518;2023-05-28T12:38:18;101151.38;;;26.16;30.15
13695;BME280;6919;52.344;14.518;2023-05-28T12:40:48;101157.28;;;25.96;28.52
13695;BME280;6919;52.344;14.518;2023-05-28T12:43:16;101147.56;;;25.71;27.84
13695;BME280;6919;52.344;14.518;2023-05-28T12:45:45;101145.25;;;26.25;29.85
13695;BME280;6919;52.344;14.518;2023-05-28T12:48:14;101145.09;;;26.32;28.04
13695;BME280;6919;52.344;14.518;2023-05-28T12:50:43;101143.63;;;26.52;28.22
13695;BME280;6919;52.344;14.518;2023-05-28T12:53:13;101139.03;;;27.30;26.40
13695;BME280;6919;52.344;14.518;2023-05-28T12:55:41;101145.44;;;27.19;25.82
13695;BME280;6919;52.344;14.518;2023-05-28T12:58:10;101145.31;;;27.80;25.61
13695;BME280;6919;52.344;14.518;2023-05-28T13:00:38;101145.72;;;28.70;27.80
13695;BME280;6919;52.344;14.518;2023-05-28T13:03:06;101146.97;;;28.84;27.34